Terminal Aerodrome Forecast
Issued by NWS Sioux Falls, SD

Home | Current Version | Previous Version | Graphics & Text | Print | Product List | Glossary On
Versions: 1 2 3 4 5 6 7 8 9 10 11 12
648
FTUS43 KFSD 281720
TAFHON
TAF
KHON 281720Z 2818/2918 01007KT P6SM SCT025
     FM282100 03007KT P6SM BKN035
     FM290600 VRB03KT P6SM BKN120
     FM291400 10004KT P6SM SCT090=

USA.gov is the U.S. government's official web portal to all federal, state and local government web resources and services.